createdAt,value
2023-03-02T00:01:01.801Z,47.21
2023-03-02T00:03:28.222Z,47.22
2023-03-02T00:05:54.942Z,47.25
2023-03-02T00:08:21.596Z,47.17
2023-03-02T00:10:48.223Z,47.22
2023-03-02T00:13:15.182Z,47.14
2023-03-02T00:15:42.166Z,47.16
2023-03-02T00:18:09.424Z,47.26
2023-03-02T00:20:35.882Z,47.15
2023-03-02T00:23:02.797Z,47.18
2023-03-02T00:25:29.217Z,47.17
2023-03-02T00:27:56.150Z,47.05
2023-03-02T00:30:22.511Z,47.15
2023-03-02T00:32:49.391Z,47.14
2023-03-02T00:35:15.831Z,47.17
2023-03-02T00:37:42.237Z,47.21
2023-03-02T00:40:08.734Z,47.18
2023-03-02T00:42:35.040Z,47.08
2023-03-02T00:45:01.439Z,47.11
2023-03-02T00:47:28.211Z,47.12
2023-03-02T00:49:54.580Z,47.26
2023-03-02T00:52:20.960Z,47.05
2023-03-02T00:54:47.342Z,47.15
2023-03-02T00:57:13.698Z,47.15
2023-03-02T00:59:40.425Z,47.29
2023-03-02T01:02:06.861Z,47.26
2023-03-02T01:04:33.545Z,47.22
2023-03-02T01:07:00.008Z,47.05
2023-03-02T01:09:26.401Z,47.28
2023-03-02T01:11:53.309Z,47.20
2023-03-02T01:14:19.648Z,47.17
2023-03-02T01:16:46.209Z,47.30
2023-03-02T01:19:13.071Z,47.24
2023-03-02T01:21:39.477Z,47.08
2023-03-02T01:24:05.814Z,47.19
2023-03-02T01:26:32.476Z,47.05
2023-03-02T01:28:59.097Z,47.23
2023-03-02T01:31:25.493Z,47.22
2023-03-02T01:33:51.928Z,47.08
2023-03-02T01:36:18.729Z,47.16
2023-03-02T01:38:45.246Z,47.19
2023-03-02T01:41:11.966Z,47.07
2023-03-02T01:43:38.415Z,47.22
2023-03-02T01:46:05.065Z,47.07
2023-03-02T01:48:31.614Z,47.11
2023-03-02T01:50:58.218Z,47.17
2023-03-02T01:53:24.557Z,47.09
2023-03-02T01:55:51.204Z,47.09
2023-03-02T01:58:17.542Z,47.00
2023-03-02T02:00:44.211Z,47.07
2023-03-02T02:03:11.012Z,47.08
2023-03-02T02:05:37.986Z,47.16
2023-03-02T02:08:04.390Z,47.06
2023-03-02T02:10:30.799Z,47.10
2023-03-02T02:12:57.264Z,46.95
2023-03-02T02:15:24.531Z,47.15
2023-03-02T02:17:50.997Z,47.05
2023-03-02T02:20:17.793Z,47.17
2023-03-02T02:22:44.795Z,46.92
2023-03-02T02:25:11.206Z,47.10
2023-03-02T02:27:37.627Z,47.04
2023-03-02T02:30:04.540Z,47.04
2023-03-02T02:32:31.220Z,47.06
2023-03-02T02:34:58.031Z,47.00
2023-03-02T02:37:24.357Z,47.11
2023-03-02T02:39:51.129Z,46.99
2023-03-02T02:42:17.719Z,47.14
2023-03-02T02:44:44.865Z,47.25
2023-03-02T02:47:11.300Z,47.22
2023-03-02T02:49:38.083Z,47.06
2023-03-02T02:52:04.906Z,46.99
2023-03-02T02:54:31.292Z,46.97
2023-03-02T02:56:58.286Z,47.45
2023-03-02T02:59:24.667Z,46.94
2023-03-02T03:01:50.964Z,47.17
2023-03-02T03:04:17.460Z,47.00
2023-03-02T03:06:44.171Z,47.05
2023-03-02T03:09:10.527Z,47.01
2023-03-02T03:11:37.062Z,46.99
2023-03-02T03:14:03.533Z,47.13
2023-03-02T03:16:30.162Z,47.02
2023-03-02T03:18:56.725Z,47.15
2023-03-02T03:21:23.289Z,47.07
2023-03-02T03:23:49.683Z,47.11
2023-03-02T03:26:16.091Z,46.98
2023-03-02T03:28:42.625Z,46.97
2023-03-02T03:31:09.159Z,47.09
2023-03-02T03:33:35.497Z,47.01
2023-03-02T03:36:02.861Z,47.06
2023-03-02T03:38:29.332Z,46.90
2023-03-02T03:40:55.665Z,46.93
2023-03-02T03:43:22.004Z,46.95
2023-03-02T03:45:48.409Z,47.16
2023-03-02T03:48:14.852Z,46.96
2023-03-02T03:50:41.436Z,47.07
2023-03-02T03:53:07.818Z,46.98
2023-03-02T03:55:34.648Z,46.97
2023-03-02T03:58:01.412Z,47.08
2023-03-02T04:00:28.275Z,47.01
2023-03-02T04:02:54.724Z,46.96
2023-03-02T04:05:21.201Z,46.91
2023-03-02T04:07:47.560Z,47.08
2023-03-02T04:10:13.876Z,46.99
2023-03-02T04:12:40.199Z,46.96
2023-03-02T04:15:06.958Z,46.97
2023-03-02T04:17:33.667Z,47.12
2023-03-02T04:20:00.426Z,46.99
2023-03-02T04:22:27.574Z,47.04
2023-03-02T04:24:54.503Z,47.00
2023-03-02T04:27:20.868Z,46.94
2023-03-02T04:29:47.517Z,47.01
2023-03-02T04:32:14.309Z,47.00
2023-03-02T04:34:40.795Z,46.96
2023-03-02T04:37:07.490Z,47.21
2023-03-02T04:39:33.850Z,46.93
2023-03-02T04:42:00.246Z,46.93
2023-03-02T04:44:26.697Z,46.93
2023-03-02T04:46:53.434Z,46.92
2023-03-02T04:49:19.921Z,46.88
2023-03-02T04:51:46.245Z,47.07
2023-03-02T04:54:12.649Z,46.90
2023-03-02T04:56:38.988Z,46.91
2023-03-02T04:59:05.406Z,47.06
2023-03-02T05:01:31.983Z,47.04
2023-03-02T05:03:58.401Z,47.04
2023-03-02T05:06:25.145Z,46.96
2023-03-02T05:08:51.544Z,47.04
2023-03-02T05:11:18.065Z,46.83
2023-03-02T05:13:44.784Z,47.02
2023-03-02T05:16:11.295Z,46.90
2023-03-02T05:18:38.264Z,46.85
2023-03-02T05:21:04.952Z,47.01
2023-03-02T05:23:31.382Z,47.02
2023-03-02T05:25:57.761Z,46.91
2023-03-02T05:28:24.342Z,47.02
2023-03-02T05:30:50.849Z,46.90
2023-03-02T05:33:17.534Z,47.08
2023-03-02T05:35:44.071Z,46.82
2023-03-02T05:38:10.518Z,46.94
2023-03-02T05:40:37.047Z,46.90
2023-03-02T05:43:03.651Z,47.11
2023-03-02T05:45:30.388Z,47.02
2023-03-02T05:47:57.201Z,46.89
2023-03-02T05:50:23.543Z,46.97
2023-03-02T05:52:50.029Z,46.85
2023-03-02T05:55:16.458Z,46.85
2023-03-02T05:57:43.374Z,46.92
2023-03-02T06:00:09.709Z,46.81
2023-03-02T06:02:36.018Z,46.82
2023-03-02T06:05:02.418Z,46.86
2023-03-02T06:07:28.823Z,46.91
2023-03-02T06:09:55.598Z,46.89
2023-03-02T06:12:22.072Z,46.88
2023-03-02T06:14:48.745Z,46.73
2023-03-02T06:17:15.368Z,46.99
2023-03-02T06:19:41.753Z,46.95
2023-03-02T06:22:08.148Z,47.07
2023-03-02T06:24:34.502Z,46.88
2023-03-02T06:27:00.857Z,46.97
2023-03-02T06:29:27.258Z,47.01
2023-03-02T06:31:53.715Z,46.86
2023-03-02T06:34:20.297Z,47.01
2023-03-02T06:36:47.165Z,46.99
2023-03-02T06:39:13.544Z,46.93
2023-03-02T06:41:39.912Z,47.29
2023-03-02T06:44:06.225Z,46.97
2023-03-02T06:46:33.363Z,47.22
2023-03-02T06:48:59.985Z,47.04
2023-03-02T06:51:26.689Z,47.16
2023-03-02T06:53:53.463Z,47.19
2023-03-02T06:56:20.387Z,47.49
2023-03-02T06:58:47.504Z,47.04
2023-03-02T07:01:13.843Z,47.02
2023-03-02T07:03:40.268Z,47.09
2023-03-02T07:06:07.622Z,46.99
2023-03-02T07:08:34.185Z,46.98
2023-03-02T07:11:00.985Z,47.09
2023-03-02T07:13:27.589Z,47.07
2023-03-02T07:15:53.965Z,46.95
2023-03-02T07:18:21.024Z,46.88
2023-03-02T07:20:47.444Z,47.21
2023-03-02T07:23:13.909Z,47.08
2023-03-02T07:25:40.338Z,47.00
2023-03-02T07:28:06.840Z,47.15
2023-03-02T07:30:33.284Z,47.09
2023-03-02T07:32:59.945Z,47.17
2023-03-02T07:35:26.837Z,47.37
2023-03-02T07:37:53.261Z,47.36
2023-03-02T07:40:20.002Z,47.21
2023-03-02T07:42:46.446Z,47.35
2023-03-02T07:45:12.862Z,47.34
2023-03-02T07:47:39.225Z,47.24
2023-03-02T07:50:06.132Z,47.37
2023-03-02T07:52:32.667Z,47.24
2023-03-02T07:54:59.624Z,47.35
2023-03-02T07:57:26.044Z,47.41
2023-03-02T07:59:52.449Z,47.48
2023-03-02T08:02:18.887Z,47.27
2023-03-02T08:04:45.794Z,47.41
2023-03-02T08:07:12.402Z,47.40
2023-03-02T08:09:38.746Z,47.50
2023-03-02T08:12:05.195Z,47.53
2023-03-02T08:14:31.746Z,47.58
2023-03-02T08:16:58.177Z,47.60
2023-03-02T08:19:24.855Z,47.51
2023-03-02T08:21:51.170Z,47.52
2023-03-02T08:24:17.488Z,47.46
2023-03-02T08:26:43.917Z,47.48
2023-03-02T08:29:10.626Z,47.55
2023-03-02T08:31:37.586Z,47.56
2023-03-02T08:34:04.561Z,47.70
2023-03-02T08:36:31.122Z,47.74
2023-03-02T08:38:57.816Z,47.76
2023-03-02T08:41:24.710Z,47.63
2023-03-02T08:43:51.777Z,47.64
2023-03-02T08:46:18.243Z,47.76
2023-03-02T08:48:44.933Z,47.79
2023-03-02T08:51:11.657Z,47.73
2023-03-02T08:53:38.150Z,47.72
2023-03-02T08:56:04.561Z,47.75
2023-03-02T08:58:31.371Z,47.70
2023-03-02T09:00:57.944Z,47.77
2023-03-02T09:03:24.387Z,47.93
2023-03-02T09:05:50.869Z,47.85
2023-03-02T09:08:17.280Z,47.77
2023-03-02T09:10:43.694Z,47.90
2023-03-02T09:13:10.097Z,47.91
2023-03-02T09:15:36.491Z,47.95
2023-03-02T09:18:03.055Z,48.04
2023-03-02T09:20:29.415Z,48.10
2023-03-02T09:22:55.822Z,48.00
2023-03-02T09:25:22.116Z,47.97
2023-03-02T09:27:48.704Z,47.99
2023-03-02T09:30:15.483Z,47.96
2023-03-02T09:32:42.149Z,48.11
2023-03-02T09:35:08.809Z,48.03
2023-03-02T09:37:35.453Z,48.11
2023-03-02T09:40:01.813Z,48.05
2023-03-02T09:42:41.811Z,48.17
2023-03-02T09:45:10.110Z,48.21
2023-03-02T09:47:36.633Z,48.14
2023-03-02T09:50:03.033Z,48.30
2023-03-02T09:52:29.398Z,48.33
2023-03-02T09:54:55.725Z,48.37
2023-03-02T09:57:22.121Z,48.36
2023-03-02T09:59:48.419Z,48.44
2023-03-02T10:02:14.869Z,48.56
2023-03-02T10:04:41.381Z,48.39
2023-03-02T10:07:08.239Z,48.45
2023-03-02T10:09:34.634Z,48.59
2023-03-02T10:12:00.962Z,48.55
2023-03-02T10:14:27.455Z,48.53
2023-03-02T10:16:53.798Z,48.62
2023-03-02T10:19:20.183Z,48.47
2023-03-02T10:21:46.526Z,48.57
2023-03-02T10:24:13.460Z,48.66
2023-03-02T10:26:39.983Z,48.77
2023-03-02T10:29:06.343Z,48.77
2023-03-02T10:31:32.679Z,48.77
2023-03-02T10:33:59.115Z,48.63
2023-03-02T10:36:25.630Z,48.74
2023-03-02T10:38:52.267Z,48.69
2023-03-02T10:41:18.683Z,48.81
2023-03-02T10:43:45.545Z,48.75
2023-03-02T10:46:12.221Z,48.71
2023-03-02T10:48:41.029Z,48.82
2023-03-02T10:51:07.647Z,48.97
2023-03-02T10:53:34.286Z,48.75
2023-03-02T10:56:00.603Z,48.82
2023-03-02T10:58:27.983Z,48.92
2023-03-02T11:00:54.424Z,49.06
2023-03-02T11:03:20.929Z,49.03
2023-03-02T11:05:47.656Z,48.86
2023-03-02T11:08:14.236Z,48.99
2023-03-02T11:10:40.854Z,49.01
2023-03-02T11:13:07.275Z,49.04
2023-03-02T11:15:33.646Z,49.15
2023-03-02T11:18:00.139Z,49.10
2023-03-02T11:20:26.466Z,49.08
2023-03-02T11:22:53.334Z,49.04
2023-03-02T11:25:19.643Z,49.09
2023-03-02T11:27:46.380Z,48.96
2023-03-02T11:30:12.865Z,49.23
2023-03-02T11:32:39.538Z,49.00
2023-03-02T11:35:05.967Z,49.19
2023-03-02T11:37:32.320Z,49.13
2023-03-02T11:39:59.630Z,49.07
2023-03-02T11:42:26.120Z,49.16
2023-03-02T11:44:52.942Z,49.24
2023-03-02T11:47:19.424Z,49.25
2023-03-02T11:49:45.910Z,48.86
2023-03-02T11:52:12.649Z,49.17
2023-03-02T11:54:39.617Z,49.29
2023-03-02T11:57:05.926Z,49.37
2023-03-02T11:59:32.619Z,49.33
2023-03-02T12:01:59.713Z,49.34
2023-03-02T12:04:26.607Z,49.29
2023-03-02T12:06:53.178Z,49.23
2023-03-02T12:09:19.526Z,49.06
2023-03-02T12:11:45.848Z,49.34
2023-03-02T12:14:12.187Z,49.45
2023-03-02T12:16:39.132Z,49.34
2023-03-02T12:19:05.702Z,49.38
2023-03-02T12:21:32.412Z,49.63
2023-03-02T12:23:58.957Z,49.60
2023-03-02T12:26:25.442Z,49.43
2023-03-02T12:28:52.520Z,49.62
2023-03-02T12:31:19.357Z,49.51
2023-03-02T12:33:45.866Z,49.65
2023-03-02T12:36:12.258Z,49.66
2023-03-02T12:38:39.212Z,49.72
2023-03-02T12:41:05.578Z,49.63
2023-03-02T12:43:31.983Z,49.65
2023-03-02T12:45:58.539Z,49.75
2023-03-02T12:48:25.957Z,49.81
2023-03-02T12:50:52.534Z,49.85
2023-03-02T12:53:18.882Z,49.80
2023-03-02T12:55:45.281Z,49.87
2023-03-02T12:58:11.619Z,49.82
2023-03-02T13:00:38.042Z,50.02
2023-03-02T13:03:04.438Z,49.96
2023-03-02T13:05:31.306Z,50.02
2023-03-02T13:07:58.282Z,50.14
2023-03-02T13:10:24.828Z,50.04
2023-03-02T13:12:51.257Z,49.96
2023-03-02T13:15:17.662Z,50.10
2023-03-02T13:17:44.316Z,50.17
2023-03-02T13:20:10.804Z,50.03
2023-03-02T13:22:37.668Z,50.03
2023-03-02T13:25:04.040Z,50.07
2023-03-02T13:27:30.381Z,50.17
2023-03-02T13:29:57.283Z,50.25
2023-03-02T13:32:24.116Z,50.27
2023-03-02T13:34:50.526Z,50.15
2023-03-02T13:37:16.859Z,50.36
2023-03-02T13:39:43.461Z,50.33
2023-03-02T13:42:10.452Z,50.31
2023-03-02T13:44:36.947Z,50.07
2023-03-02T13:47:03.733Z,50.12
2023-03-02T13:49:30.170Z,50.23
2023-03-02T13:51:56.604Z,50.27
2023-03-02T13:54:23.106Z,50.13
2023-03-02T13:56:49.455Z,50.19
2023-03-02T13:59:15.789Z,50.26
2023-03-02T14:01:42.261Z,50.40
2023-03-02T14:04:08.711Z,50.32
2023-03-02T14:06:35.743Z,50.41
2023-03-02T14:09:02.581Z,50.24
2023-03-02T14:11:28.985Z,50.27
2023-03-02T14:13:55.305Z,50.34
2023-03-02T14:16:21.952Z,50.53
2023-03-02T14:18:48.330Z,50.87
2023-03-02T14:21:14.830Z,50.79
2023-03-02T14:23:41.392Z,50.88
2023-03-02T14:26:07.814Z,50.87
2023-03-02T14:28:34.735Z,51.01
2023-03-02T14:31:01.687Z,51.29
2023-03-02T14:33:28.389Z,51.31
2023-03-02T14:35:55.026Z,51.55
2023-03-02T14:38:21.436Z,51.45
2023-03-02T14:40:47.848Z,51.53
2023-03-02T14:43:14.270Z,51.63
2023-03-02T14:45:40.940Z,51.74
2023-03-02T14:48:07.435Z,51.65
2023-03-02T14:50:33.772Z,51.76
2023-03-02T14:53:00.431Z,51.81
2023-03-02T14:55:27.312Z,51.97
2023-03-02T14:57:53.817Z,51.88
2023-03-02T15:00:20.491Z,52.00
2023-03-02T15:02:47.864Z,51.86
2023-03-02T15:05:14.598Z,52.08
2023-03-02T15:07:41.062Z,52.13
2023-03-02T15:10:07.411Z,51.88
2023-03-02T15:12:34.164Z,52.04
2023-03-02T15:15:01.258Z,51.91
2023-03-02T15:17:27.632Z,51.88
2023-03-02T15:19:54.467Z,52.00
2023-03-02T15:22:20.804Z,51.90
2023-03-02T15:24:47.623Z,51.84
2023-03-02T15:27:14.040Z,51.80
2023-03-02T15:29:40.388Z,51.96
2023-03-02T15:32:06.755Z,51.95
2023-03-02T15:34:33.592Z,51.92
2023-03-02T15:36:59.974Z,51.80
2023-03-02T15:39:26.524Z,51.82
2023-03-02T15:41:53.134Z,51.82
2023-03-02T15:44:19.452Z,51.65
2023-03-02T15:46:45.974Z,51.53
2023-03-02T15:49:12.421Z,51.78
2023-03-02T15:51:38.765Z,51.34
2023-03-02T15:54:05.670Z,51.64
2023-03-02T15:56:42.343Z,51.52
2023-03-02T15:59:08.894Z,51.60
2023-03-02T16:01:35.320Z,51.59
2023-03-02T16:04:01.768Z,51.43
2023-03-02T16:06:28.294Z,51.42
2023-03-02T16:08:55.093Z,51.48
2023-03-02T16:11:21.973Z,51.41
2023-03-02T16:13:48.955Z,51.46
2023-03-02T16:16:15.566Z,51.66
2023-03-02T16:18:42.579Z,51.21
2023-03-02T16:21:09.326Z,51.42
2023-03-02T16:23:35.607Z,51.30
2023-03-02T16:26:02.461Z,51.18
2023-03-02T16:28:28.837Z,51.19
2023-03-02T16:30:55.530Z,51.14
2023-03-02T16:33:22.034Z,51.03
2023-03-02T16:35:49.411Z,51.02
2023-03-02T16:38:16.625Z,51.10
2023-03-02T16:40:43.095Z,51.21
2023-03-02T16:43:09.451Z,51.01
2023-03-02T16:45:36.290Z,50.91
2023-03-02T16:48:02.819Z,51.04
2023-03-02T16:50:29.557Z,51.03
2023-03-02T16:52:55.953Z,51.10
2023-03-02T16:55:22.637Z,50.86
2023-03-02T16:57:48.980Z,51.03
2023-03-02T17:00:15.510Z,50.95
2023-03-02T17:02:41.917Z,50.93
2023-03-02T17:05:08.537Z,50.79
2023-03-02T17:07:35.324Z,50.77
2023-03-02T17:10:02.469Z,50.69
2023-03-02T17:12:29.068Z,50.77
2023-03-02T17:14:55.815Z,50.86
2023-03-02T17:17:22.624Z,50.84
2023-03-02T17:19:49.506Z,50.84
2023-03-02T17:22:15.966Z,50.71
2023-03-02T17:24:42.386Z,50.78
2023-03-02T17:27:23.778Z,50.64
2023-03-02T17:29:51.213Z,50.62
2023-03-02T17:32:18.658Z,50.64
2023-03-02T17:34:45.296Z,50.56
2023-03-02T17:37:11.704Z,50.60
2023-03-02T17:39:38.083Z,50.75
2023-03-02T17:42:04.595Z,50.79
2023-03-02T17:44:30.903Z,50.77
2023-03-02T17:46:57.243Z,50.58
2023-03-02T17:49:23.607Z,50.53
2023-03-02T17:51:50.026Z,50.60
2023-03-02T17:54:16.518Z,50.45
2023-03-02T17:56:42.938Z,50.49
2023-03-02T17:59:10.149Z,50.53
2023-03-02T18:01:37.036Z,50.82
2023-03-02T18:04:03.779Z,50.77
2023-03-02T18:06:30.197Z,50.84
2023-03-02T18:08:57.093Z,50.92
2023-03-02T18:11:23.665Z,50.97
2023-03-02T18:13:50.750Z,51.23
2023-03-02T18:16:17.289Z,51.05
2023-03-02T18:18:43.970Z,51.02
2023-03-02T18:21:10.442Z,51.11
2023-03-02T18:23:37.113Z,51.22
2023-03-02T18:26:03.780Z,51.17
2023-03-02T18:28:30.255Z,51.19
2023-03-02T18:30:56.765Z,51.26
2023-03-02T18:33:23.194Z,51.39
2023-03-02T18:35:49.710Z,51.37
2023-03-02T18:38:16.226Z,51.48
2023-03-02T18:40:42.732Z,51.49
2023-03-02T18:43:09.345Z,51.68
2023-03-02T18:45:35.783Z,51.69
2023-03-02T18:48:02.278Z,51.54
2023-03-02T18:50:29.078Z,51.65
2023-03-02T18:52:55.431Z,51.58
2023-03-02T18:55:22.046Z,51.66
2023-03-02T18:57:48.450Z,51.76
2023-03-02T19:00:14.953Z,51.98
2023-03-02T19:02:41.359Z,52.12
2023-03-02T19:05:07.958Z,51.84
2023-03-02T19:07:34.478Z,52.13
2023-03-02T19:10:01.096Z,52.11
2023-03-02T19:12:27.906Z,52.09
2023-03-02T19:14:54.383Z,52.09
2023-03-02T19:17:20.686Z,51.89
2023-03-02T19:19:47.299Z,51.92
2023-03-02T19:22:14.102Z,52.00
2023-03-02T19:24:40.472Z,51.92
2023-03-02T19:27:07.327Z,52.12
2023-03-02T19:29:33.719Z,51.88
2023-03-02T19:32:00.203Z,52.02
2023-03-02T19:34:26.974Z,52.10
2023-03-02T19:36:53.294Z,52.08
2023-03-02T19:39:19.647Z,52.01
2023-03-02T19:41:46.291Z,52.28
2023-03-02T19:44:12.710Z,52.17
2023-03-02T19:46:39.085Z,52.18
2023-03-02T19:49:05.439Z,52.02
2023-03-02T19:51:31.726Z,52.13
2023-03-02T19:53:58.086Z,52.12
2023-03-02T19:56:24.584Z,51.96
2023-03-02T19:58:50.964Z,52.13
2023-03-02T20:01:17.470Z,52.05
2023-03-02T20:03:43.961Z,52.11
2023-03-02T20:06:10.305Z,52.24
2023-03-02T20:08:36.666Z,52.17
2023-03-02T20:11:03.277Z,52.29
2023-03-02T20:13:29.724Z,52.08
2023-03-02T20:15:56.098Z,52.47
2023-03-02T20:18:22.827Z,52.01
2023-03-02T20:20:49.169Z,51.97
2023-03-02T20:23:15.607Z,52.22
2023-03-02T20:25:41.954Z,52.27
2023-03-02T20:28:08.332Z,52.13
2023-03-02T20:30:34.881Z,52.12
2023-03-02T20:33:01.495Z,52.43
2023-03-02T20:35:27.895Z,52.42
2023-03-02T20:37:54.498Z,52.63
2023-03-02T20:40:21.239Z,52.65
2023-03-02T20:42:48.334Z,52.67
2023-03-02T20:45:15.055Z,52.63
2023-03-02T20:47:41.546Z,52.83
2023-03-02T20:50:07.891Z,52.87
2023-03-02T20:52:34.666Z,52.96
2023-03-02T20:55:01.470Z,52.95
2023-03-02T20:57:28.072Z,52.89
2023-03-02T20:59:54.510Z,53.09
2023-03-02T21:02:20.846Z,53.01
2023-03-02T21:04:47.206Z,52.97
2023-03-02T21:07:13.727Z,53.04
2023-03-02T21:09:40.219Z,52.85
2023-03-02T21:12:06.758Z,53.00
2023-03-02T21:14:33.787Z,52.83
2023-03-02T21:17:00.178Z,53.14
2023-03-02T21:19:26.704Z,53.12
2023-03-02T21:21:53.065Z,52.89
2023-03-02T21:24:19.408Z,52.94
2023-03-02T21:26:45.741Z,53.14
2023-03-02T21:29:12.250Z,53.03
2023-03-02T21:31:39.130Z,53.02
2023-03-02T21:34:05.632Z,52.90
2023-03-02T21:36:32.344Z,52.77
2023-03-02T21:38:59.563Z,53.06
2023-03-02T21:41:26.100Z,52.86
2023-03-02T21:43:52.504Z,53.07
2023-03-02T21:46:19.159Z,53.06
2023-03-02T21:48:45.869Z,53.09
2023-03-02T21:51:12.222Z,52.93
2023-03-02T21:53:38.831Z,52.82
2023-03-02T21:56:05.281Z,52.89
2023-03-02T21:58:31.698Z,52.76
2023-03-02T22:00:58.124Z,53.03
2023-03-02T22:03:25.136Z,52.96
2023-03-02T22:05:51.835Z,53.09
2023-03-02T22:08:18.679Z,52.97
2023-03-02T22:10:45.989Z,52.81
2023-03-02T22:13:12.549Z,53.04
2023-03-02T22:15:39.136Z,52.91
2023-03-02T22:18:05.913Z,53.40
2023-03-02T22:20:32.387Z,53.16
2023-03-02T22:22:59.654Z,53.24
2023-03-02T22:25:26.584Z,53.21
2023-03-02T22:27:53.530Z,52.98
2023-03-02T22:30:20.267Z,53.09
2023-03-02T22:32:47.008Z,53.38
2023-03-02T22:35:15.122Z,53.31
2023-03-02T22:37:42.239Z,53.27
2023-03-02T22:40:09.203Z,53.07
2023-03-02T22:42:35.863Z,53.42
2023-03-02T22:45:02.901Z,53.45
2023-03-02T22:47:29.525Z,53.30
2023-03-02T22:49:56.117Z,53.70
2023-03-02T22:52:22.952Z,54.16
2023-03-02T22:54:49.540Z,53.59
2023-03-02T22:57:16.701Z,53.43
2023-03-02T22:59:43.232Z,53.35
2023-03-02T23:02:09.879Z,53.60
2023-03-02T23:04:36.491Z,53.19
2023-03-02T23:07:03.772Z,53.30
2023-03-02T23:09:30.366Z,53.16
2023-03-02T23:11:57.459Z,53.01
2023-03-02T23:14:25.553Z,53.16
2023-03-02T23:16:52.286Z,52.94
2023-03-02T23:19:19.096Z,52.64
2023-03-02T23:21:45.764Z,52.66
2023-03-02T23:24:12.383Z,52.33
2023-03-02T23:26:39.719Z,52.07
2023-03-02T23:29:06.352Z,51.99
2023-03-02T23:31:33.882Z,52.11
2023-03-02T23:34:00.292Z,51.97
2023-03-02T23:36:26.910Z,51.71
2023-03-02T23:38:54.009Z,51.60
2023-03-02T23:41:21.826Z,51.44
2023-03-02T23:43:49.648Z,51.54
2023-03-02T23:46:16.332Z,51.40
2023-03-02T23:48:42.817Z,51.25
2023-03-02T23:51:09.684Z,51.28
2023-03-02T23:53:36.578Z,51.32
2023-03-02T23:56:04.169Z,51.22
2023-03-02T23:58:32.207Z,51.06
